Time;durP1;ratioP1;P1;durP2;ratioP2;P2;SDS_P1;SDS_P2;PMS_P1;PMS_P2;Temp;Humidity;BMP_temperature;BMP_pressure;BME280_temperature;BME280_humidity;BME280_pressure;Samples;Min_cycle;Max_cycle;Signal;HPM_P1;HPM_P2
2022/04/16 00:00:56;;;;;;;4.35;3.08;;;;;;;18.52;45.70;99131.44;5090205;28;20491;-51
2022/04/16 00:03:23;;;;;;;5.65;4.85;;;;;;;18.42;45.96;99141.91;5091495;28;20016;-49
2022/04/16 00:05:53;;;;;;;6.35;4.20;;;;;;;18.30;46.19;99131.34;5091571;28;20051;-50
2022/04/16 00:08:24;;;;;;;6.00;3.28;;;;;;;18.16;46.44;99145.97;5093381;28;20016;-50
2022/04/16 00:10:51;;;;;;;9.88;4.65;;;;;;;18.08;46.60;99139.19;5095402;28;20021;-50
2022/04/16 00:13:18;;;;;;;7.43;3.55;;;;;;;18.02;46.71;99145.47;5094043;28;20024;-50
2022/04/16 00:15:46;;;;;;;8.50;3.47;;;;;;;18.00;47.08;99149.41;5094222;28;20440;-50
2022/04/16 00:18:13;;;;;;;12.18;6.60;;;;;;;17.99;47.25;99143.31;5095282;28;20024;-50
2022/04/16 00:20:40;;;;;;;8.40;4.18;;;;;;;17.90;47.14;99144.72;5093806;28;20028;-50
2022/04/16 00:23:07;;;;;;;6.72;3.20;;;;;;;17.85;47.35;99140.13;5095077;28;20095;-50
2022/04/16 00:25:34;;;;;;;9.35;5.13;;;;;;;17.85;47.69;99139.28;5095115;28;20036;-50
2022/04/16 00:28:04;;;;;;;11.90;5.63;;;;;;;17.87;47.48;99145.19;5093761;28;20020;-51
2022/04/16 00:30:37;;;;;;;16.40;10.82;;;;;;;17.83;47.53;99138.69;5095015;28;20024;-50
2022/04/16 00:33:05;;;;;;;19.77;12.23;;;;;;;17.74;47.63;99138.25;5093728;28;20062;-50
2022/04/16 00:35:31;;;;;;;5.95;5.30;;;;;;;17.66;47.44;99133.31;5094657;28;20044;-51
2022/04/16 00:37:57;;;;;;;8.07;4.60;;;;;;;17.58;47.83;99134.50;5094865;28;20036;-51
2022/04/16 00:40:23;;;;;;;6.25;4.45;;;;;;;17.51;47.96;99133.84;5093435;28;20036;-51
2022/04/16 00:42:50;;;;;;;11.02;7.13;;;;;;;17.50;47.80;99127.72;5093373;28;20024;-50
2022/04/16 00:45:15;;;;;;;8.05;4.93;;;;;;;17.44;48.01;99127.84;5094693;28;20039;-50
2022/04/16 00:47:42;;;;;;;65.32;44.28;;;;;;;17.37;48.46;99126.13;5093317;28;20405;-50
2022/04/16 00:50:09;;;;;;;9.20;7.32;;;;;;;17.30;48.39;99122.78;5093281;28;20031;-51
2022/04/16 00:52:39;;;;;;;7.45;6.65;;;;;;;17.25;48.66;99132.50;5094618;28;20514;-50
2022/04/16 00:55:08;;;;;;;10.43;7.63;;;;;;;17.20;48.78;99127.06;5094562;28;20105;-51
2022/04/16 00:57:35;;;;;;;8.73;5.30;;;;;;;17.14;48.84;99126.97;5094550;28;20509;-50
2022/04/16 01:00:01;;;;;;;6.97;4.25;;;;;;;17.15;48.83;99125.94;5093122;28;20069;-50
2022/04/16 01:02:27;;;;;;;6.97;4.60;;;;;;;17.10;48.99;99125.00;5094243;28;20028;-51
2022/04/16 01:04:54;;;;;;;10.05;6.57;;;;;;;17.10;49.12;99120.53;5094332;28;20027;-51
2022/04/16 01:07:26;;;;;;;6.10;5.45;;;;;;;17.10;49.21;99119.69;5094234;28;20030;-50
2022/04/16 01:09:52;;;;;;;9.60;6.07;;;;;;;17.06;49.22;99123.84;5092898;28;20084;-50
2022/04/16 01:12:19;;;;;;;7.05;3.55;;;;;;;17.07;49.18;99118.31;5094169;28;20020;-50
2022/04/16 01:14:49;;;;;;;56.45;50.38;;;;;;;17.05;49.13;99114.31;5094210;28;20052;-50
2022/04/16 01:17:15;;;;;;;17.38;14.55;;;;;;;17.00;49.03;99114.97;5094228;28;20024;-50
2022/04/16 01:19:42;;;;;;;7.00;5.22;;;;;;;16.92;49.56;99112.69;5093803;28;20032;-51
2022/04/16 01:22:11;;;;;;;16.00;4.78;;;;;;;16.90;49.44;99106.78;5094010;28;20027;-50
2022/04/16 01:24:37;;;;;;;9.45;4.40;;;;;;;16.87;49.39;99105.41;5092574;28;20119;-51
2022/04/16 01:27:04;;;;;;;7.32;3.95;;;;;;;16.83;49.73;99117.53;5092662;28;20027;-49
2022/04/16 01:29:30;;;;;;;8.32;4.47;;;;;;;16.85;49.61;99106.69;5092576;28;20085;-50
2022/04/16 01:31:56;;;;;;;7.75;4.25;;;;;;;16.75;49.57;99105.38;5092548;28;20468;-50
2022/04/16 01:34:22;;;;;;;7.03;5.20;;;;;;;16.70;49.62;99110.59;5093588;28;20043;-50
2022/04/16 01:36:48;;;;;;;6.32;4.65;;;;;;;16.62;49.83;99110.09;5092465;28;20028;-50
2022/04/16 01:39:14;;;;;;;43.92;36.35;;;;;;;16.57;50.05;99116.91;5093703;28;20024;-51
2022/04/16 01:41:40;;;;;;;12.43;7.50;;;;;;;16.53;50.49;99113.09;5093694;28;20024;-50
2022/04/16 01:44:07;;;;;;;10.73;9.57;;;;;;;16.50;50.37;99108.25;5093541;28;20025;-50
2022/04/16 01:46:32;;;;;;;11.55;7.88;;;;;;;16.47;50.57;99114.00;5093487;28;20032;-50
2022/04/16 01:48:58;;;;;;;5.78;4.50;;;;;;;16.47;50.51;99108.69;5093477;28;20024;-50
2022/04/16 01:51:24;;;;;;;7.85;4.10;;;;;;;16.47;50.48;99111.34;5093461;28;20020;-49
2022/04/16 01:53:50;;;;;;;18.60;5.40;;;;;;;16.52;50.52;99108.84;5092063;28;20515;-50
2022/04/16 01:56:16;;;;;;;11.48;3.95;;;;;;;16.55;50.51;99107.56;5093315;28;20570;-50
2022/04/16 01:58:43;;;;;;;6.80;4.80;;;;;;;16.53;50.42;99109.63;5093379;28;20535;-51
2022/04/16 02:01:10;;;;;;;8.15;4.25;;;;;;;16.54;50.49;99112.06;5093225;28;20055;-49
2022/04/16 02:03:36;;;;;;;12.13;5.32;;;;;;;16.52;50.57;99110.66;5093151;28;20077;-50
2022/04/16 02:06:06;;;;;;;8.13;4.55;;;;;;;16.54;50.40;99113.88;5093188;28;20454;-50
2022/04/16 02:08:31;;;;;;;5.40;4.32;;;;;;;16.47;50.52;99107.91;5091792;28;20020;-50
2022/04/16 02:10:57;;;;;;;9.13;5.03;;;;;;;16.36;50.59;99112.16;5091786;28;20078;-50
2022/04/16 02:13:23;;;;;;;4.75;4.13;;;;;;;16.31;50.86;99114.66;5093077;28;20028;-50
2022/04/16 02:15:49;;;;;;;8.07;4.63;;;;;;;16.25;51.05;99112.94;5091752;28;20428;-50
2022/04/16 02:18:15;;;;;;;6.60;3.85;;;;;;;16.29;50.87;99114.09;5093006;28;20027;-50
2022/04/16 02:20:44;;;;;;;9.50;4.35;;;;;;;16.23;50.82;99112.34;5092933;28;20398;-51
2022/04/16 02:23:10;;;;;;;6.50;4.20;;;;;;;16.15;50.99;99111.63;5091467;28;20442;-50
2022/04/16 02:25:36;;;;;;;6.88;4.20;;;;;;;16.09;51.50;99111.72;5091502;28;20028;-50
2022/04/16 02:28:02;;;;;;;7.20;5.10;;;;;;;16.04;51.34;99115.06;5092799;28;20021;-50
2022/04/16 02:30:31;;;;;;;6.45;4.57;;;;;;;15.98;51.66;99121.25;5092099;28;20031;-51
2022/04/16 02:32:58;;;;;;;7.53;4.00;;;;;;;15.97;51.55;99120.44;5092705;28;20027;-50
2022/04/16 02:35:24;;;;;;;8.30;5.22;;;;;;;15.94;51.75;99115.59;5092323;28;20044;-50
2022/04/16 02:37:50;;;;;;;6.70;5.70;;;;;;;15.95;52.19;99114.53;5092601;28;20529;-51
2022/04/16 02:40:16;;;;;;;30.05;25.38;;;;;;;15.98;52.08;99119.41;5091147;28;20501;-50
2022/04/16 02:42:44;;;;;;;11.82;7.68;;;;;;;15.97;51.79;99117.78;5091127;28;20024;-50
2022/04/16 02:47:57;;;;;;;10.02;4.82;;;;;;;15.86;52.29;99123.84;5092740;28;20543;-50
2022/04/16 02:50:27;;;;;;;10.18;4.85;;;;;;;15.89;51.92;99114.66;5092399;28;20032;-50
2022/04/16 02:52:55;;;;;;;10.35;4.43;;;;;;;15.93;51.95;99113.16;5092345;28;20028;-49
2022/04/16 02:55:22;;;;;;;10.52;5.38;;;;;;;15.87;51.74;99109.56;5090936;28;20021;-50
2022/04/16 02:57:49;;;;;;;8.52;5.05;;;;;;;15.78;52.05;99105.63;5092260;28;20103;-50
2022/04/16 03:00:15;;;;;;;13.55;4.57;;;;;;;15.73;52.28;99108.13;5092231;28;20024;-50
2022/04/16 03:02:42;;;;;;;9.93;5.00;;;;;;;15.70;52.46;99106.72;5090812;28;20031;-49
2022/04/16 03:05:08;;;;;;;6.38;4.78;;;;;;;15.66;52.35;99112.69;5090795;28;20028;-49
2022/04/16 03:07:35;;;;;;;9.57;4.63;;;;;;;15.61;52.61;99107.25;5092139;28;20028;-50
2022/04/16 03:10:03;;;;;;;5.55;4.47;;;;;;;15.58;52.49;99113.78;5092051;28;20020;-51
2022/04/16 03:12:39;;;;;;;7.38;4.40;;;;;;;15.55;52.67;99107.13;5090704;28;20024;-50
2022/04/16 03:17:50;;;;;;;9.27;4.28;;;;;;;15.49;52.85;99107.19;5092104;28;20085;-50
2022/04/16 03:20:15;;;;;;;6.38;4.60;;;;;;;15.44;52.85;99101.75;5091926;28;20397;-50
2022/04/16 03:22:43;;;;;;;11.73;6.53;;;;;;;15.41;53.16;99108.28;5090549;28;20024;-50
2022/04/16 03:25:09;;;;;;;13.38;6.78;;;;;;;15.40;53.23;99108.53;5091888;28;20016;-50
2022/04/16 03:27:37;;;;;;;5.72;4.50;;;;;;;15.37;53.21;99105.28;5091927;28;20032;-50
2022/04/16 03:30:07;;;;;;;8.88;5.00;;;;;;;15.37;53.40;99107.09;5090516;28;20024;-50
2022/04/16 03:32:39;;;;;;;13.25;5.35;;;;;;;15.27;53.41;99105.00;5091858;28;20027;-50
2022/04/16 03:35:07;;;;;;;18.17;13.65;;;;;;;15.20;53.79;99104.25;5091640;28;20048;-50
2022/04/16 03:37:34;;;;;;;11.68;5.82;;;;;;;15.18;53.64;99106.31;5091787;28;20035;-50
2022/04/16 03:40:00;;;;;;;7.25;4.78;;;;;;;15.18;53.79;99106.31;5090432;28;20028;-50
2022/04/16 03:42:26;;;;;;;8.25;4.65;;;;;;;15.16;53.82;99111.00;5092552;28;20398;-50
2022/04/16 03:44:52;;;;;;;7.15;5.38;;;;;;;15.15;54.09;99114.66;5095927;28;20024;-50
2022/04/16 03:47:17;;;;;;;12.48;5.28;;;;;;;15.14;53.92;99108.56;5094557;28;20020;-50
2022/04/16 03:49:43;;;;;;;20.27;7.03;;;;;;;15.11;53.93;99102.91;5094434;28;20024;-51
2022/04/16 03:52:09;;;;;;;13.45;7.30;;;;;;;15.10;54.19;99103.97;5095786;28;20042;-50
2022/04/16 04:00:05;;;;;;;7.72;6.20;;;;;;;15.03;54.13;99101.38;5095646;28;20055;-51
2022/04/16 04:02:38;;;;;;;6.78;5.38;;;;;;;14.99;54.20;99100.22;5095541;28;20028;-50
2022/04/16 04:05:05;;;;;;;10.80;6.28;;;;;;;14.95;54.64;99101.66;5095556;28;20109;-50
2022/04/16 04:07:31;;;;;;;14.13;11.00;;;;;;;14.92;54.46;99110.03;5095511;28;20401;-49
2022/04/16 04:09:57;;;;;;;12.85;11.02;;;;;;;14.87;54.77;99110.69;5095354;28;20024;-50
2022/04/16 04:12:22;;;;;;;15.30;7.03;;;;;;;14.87;54.65;99109.84;5095401;28;20016;-50
2022/04/16 04:14:48;;;;;;;8.85;7.15;;;;;;;14.86;54.63;99108.25;5094026;28;20032;-50
2022/04/16 04:17:15;;;;;;;22.40;19.98;;;;;;;14.81;54.77;99114.19;5095262;28;20074;-49
2022/04/16 04:19:43;;;;;;;8.23;6.63;;;;;;;14.73;55.41;99115.28;5095264;28;20065;-51
2022/04/16 04:22:10;;;;;;;7.70;5.20;;;;;;;14.72;55.45;99120.78;5095139;28;20490;-50
2022/04/16 04:24:38;;;;;;;10.55;5.32;;;;;;;14.68;55.58;99111.66;5095405;28;20077;-51
2022/04/16 04:27:04;;;;;;;16.17;14.02;;;;;;;14.64;55.29;99108.63;5093744;28;20024;-50
2022/04/16 04:29:30;;;;;;;221.63;198.80;;;;;;;14.57;55.58;99113.97;5093659;28;20074;-50
2022/04/16 04:31:57;;;;;;;61.65;55.50;;;;;;;14.56;55.60;99114.19;5093620;28;20036;-50
2022/04/16 04:34:23;;;;;;;18.88;16.77;;;;;;;14.56;55.68;99117.63;5093415;28;20032;-49
2022/04/16 04:36:49;;;;;;;14.85;13.35;;;;;;;14.52;55.85;99119.06;5094889;28;20069;-51
2022/04/16 04:39:15;;;;;;;23.30;21.00;;;;;;;14.58;55.71;99110.31;5093571;28;20581;-50
2022/04/16 04:41:45;;;;;;;17.38;12.35;;;;;;;14.53;55.69;99115.41;5094797;28;20099;-50
2022/04/16 04:44:15;;;;;;;10.68;9.07;;;;;;;14.54;55.79;99117.00;5094758;28;20020;-51
2022/04/16 04:46:42;;;;;;;12.27;6.53;;;;;;;14.57;55.91;99121.91;5094780;28;20029;-50
2022/04/16 04:49:08;;;;;;;12.73;6.28;;;;;;;14.60;55.82;99122.50;5094681;28;20024;-49
2022/04/16 04:51:35;;;;;;;11.93;6.45;;;;;;;14.55;55.99;99123.94;5093315;28;20563;-50
2022/04/16 04:54:02;;;;;;;10.15;5.97;;;;;;;14.53;55.82;99125.97;5093995;28;20095;-50
2022/04/16 04:56:29;;;;;;;8.63;6.32;;;;;;;14.52;56.00;99123.53;5093250;28;20031;-50
2022/04/16 04:58:55;;;;;;;8.65;6.32;;;;;;;14.52;56.21;99123.53;5093135;28;20023;-50
2022/04/16 05:01:20;;;;;;;9.65;5.45;;;;;;;14.65;56.25;99117.38;5093076;28;20031;-50
2022/04/16 05:03:46;;;;;;;13.57;7.10;;;;;;;14.77;55.62;99129.66;5093048;28;20043;-50
2022/04/16 05:06:12;;;;;;;6.78;5.45;;;;;;;14.78;55.58;99118.06;5093003;28;20111;-50
2022/04/16 05:08:37;;;;;;;8.88;5.72;;;;;;;14.84;55.38;99120.88;5093001;28;20027;-51
2022/04/16 05:11:03;;;;;;;6.30;5.53;;;;;;;14.87;55.37;99123.91;5092983;28;20447;-50
2022/04/16 05:13:29;;;;;;;11.20;6.82;;;;;;;14.96;55.13;99129.72;5094215;28;20024;-50
2022/04/16 05:15:54;;;;;;;6.78;5.35;;;;;;;15.24;54.50;99131.06;5094218;28;20104;-50
2022/04/16 05:18:20;;;;;;;6.85;5.18;;;;;;;15.44;53.87;99115.78;5094188;28;20489;-51
2022/04/16 05:20:46;;;;;;;10.98;6.03;;;;;;;15.43;53.95;99123.94;5092722;28;20035;-50
2022/04/16 05:23:12;;;;;;;12.27;7.88;;;;;;;15.61;53.60;99126.56;5092640;28;20020;-51
2022/04/16 05:25:38;;;;;;;16.77;9.07;;;;;;;15.90;52.80;99122.38;5093978;28;20031;-50
2022/04/16 05:28:04;;;;;;;9.57;5.70;;;;;;;16.18;52.23;99128.91;5093903;28;20025;-50
2022/04/16 05:30:34;;;;;;;22.33;19.02;;;;;;;16.47;51.63;99121.94;5092592;28;20077;-50
2022/04/16 05:33:12;;;;;;;14.02;12.27;;;;;;;16.95;50.57;99126.28;5093859;28;20055;-49
2022/04/16 05:35:38;;;;;;;9.45;7.28;;;;;;;17.41;49.49;99125.69;5093579;28;20127;-50
2022/04/16 05:38:03;;;;;;;10.13;6.18;;;;;;;17.78;48.13;99124.28;5092447;28;20185;-50
2022/04/16 05:40:29;;;;;;;10.32;6.95;;;;;;;18.34;46.98;99126.38;5092352;28;20024;-50
2022/04/16 05:42:55;;;;;;;10.02;5.90;;;;;;;18.82;46.08;99122.38;5093607;28;20565;-51
2022/04/16 05:45:21;;;;;;;12.55;7.80;;;;;;;19.27;44.79;99123.25;5093607;28;20039;-50
2022/04/16 05:47:46;;;;;;;10.45;5.15;;;;;;;19.51;44.10;99123.81;5093539;28;20080;-51
2022/04/16 05:50:12;;;;;;;11.55;7.05;;;;;;;19.64;43.59;99122.63;5093504;28;20024;-50
2022/04/16 05:52:38;;;;;;;6.75;5.50;;;;;;;19.67;43.79;99116.81;5092110;28;20032;-50
2022/04/16 05:55:05;;;;;;;11.73;5.47;;;;;;;19.89;43.54;99119.50;5092021;28;20561;-50
2022/04/16 05:57:31;;;;;;;6.90;5.00;;;;;;;20.04;43.00;99127.66;5093372;28;20508;-50
2022/04/16 05:59:57;;;;;;;13.57;6.55;;;;;;;20.42;42.32;99125.03;5093623;28;20020;-50
2022/04/16 06:02:23;;;;;;;9.48;5.45;;;;;;;20.73;41.63;99126.91;5093236;28;20027;-50
2022/04/16 06:04:49;;;;;;;10.82;5.80;;;;;;;21.03;40.90;99124.72;5092863;28;20020;-49
2022/04/16 06:07:15;;;;;;;6.00;5.30;;;;;;;21.58;39.72;99127.94;5092831;28;20485;-50
2022/04/16 06:09:41;;;;;;;9.35;4.85;;;;;;;22.09;38.97;99125.38;5093099;28;20085;-51
2022/04/16 06:12:09;;;;;;;10.40;6.15;;;;;;;22.61;37.87;99128.94;5091729;28;20497;-49
2022/04/16 06:14:34;;;;;;;4.75;4.25;;;;;;;;;;5093065;28;20081;-50
2022/04/16 06:17:00;;;;;;;7.38;4.55;;;;;;;23.73;35.09;99128.63;5092936;28;20028;-51
2022/04/16 06:19:26;;;;;;;12.85;8.07;;;;;;;24.08;34.60;99120.69;5092979;28;20019;-50
2022/04/16 06:21:52;;;;;;;6.40;4.32;;;;;;;24.23;34.17;99125.97;5091571;28;20024;-50
2022/04/16 06:24:18;;;;;;;14.63;5.65;;;;;;;24.28;34.25;99117.84;5092780;28;20383;-50
2022/04/16 06:26:45;;;;;;;5.97;4.68;;;;;;;24.43;33.83;99119.63;5092777;28;20028;-51
2022/04/16 06:29:11;;;;;;;7.53;4.95;;;;;;;24.84;33.27;99118.50;5092800;28;20073;-50
2022/04/16 06:31:37;;;;;;;6.28;4.30;;;;;;;25.25;32.44;99110.00;5091667;28;20057;-49
2022/04/16 06:34:03;;;;;;;11.15;4.95;;;;;;;25.45;32.17;99120.50;5092405;28;20012;-50
2022/04/16 06:36:29;;;;;;;10.68;4.50;;;;;;;25.54;32.02;99120.69;5091356;28;20089;-50
2022/04/16 06:38:55;;;;;;;12.82;4.97;;;;;;;25.48;31.84;99122.63;5092615;28;20056;-50
2022/04/16 06:41:20;;;;;;;8.32;4.25;;;;;;;25.34;32.23;99119.06;5092517;28;20375;-50
2022/04/16 06:43:46;;;;;;;7.75;4.13;;;;;;;25.55;32.11;99124.16;5091127;28;20070;-49
2022/04/16 06:46:12;;;;;;;10.10;4.65;;;;;;;25.61;31.92;99131.06;5091084;28;20531;-51
2022/04/16 06:48:38;;;;;;;18.70;8.70;;;;;;;25.30;32.27;99118.03;5092461;28;20020;-50
2022/04/16 06:51:05;;;;;;;18.40;8.00;;;;;;;25.11;32.55;99115.22;5091099;28;20020;-50
2022/04/16 06:53:30;;;;;;;15.50;11.95;;;;;;;25.10;32.52;99121.72;5092407;28;20036;-51
2022/04/16 06:56:00;;;;;;;356.63;322.70;;;;;;;25.15;32.77;99115.47;5090898;28;20035;-50
2022/04/16 06:58:28;;;;;;;41.28;32.45;;;;;;;25.15;32.32;99107.41;5092272;28;20069;-50
2022/04/16 07:00:55;;;;;;;19.23;11.10;;;;;;;25.29;32.27;99119.91;5090908;28;20020;-50
2022/04/16 07:03:21;;;;;;;15.75;5.65;;;;;;;25.95;31.48;99113.97;5092201;28;20469;-51
2022/04/16 07:05:46;;;;;;;8.57;5.00;;;;;;;26.55;30.51;99116.00;5092224;28;20020;-51
2022/04/16 07:08:12;;;;;;;14.38;5.05;;;;;;;27.51;28.97;99115.31;5092257;28;20477;-51
2022/04/16 07:10:39;;;;;;;11.93;4.18;;;;;;;28.10;28.21;99118.06;5092148;28;20499;-52
2022/04/16 07:13:05;;;;;;;6.35;3.63;;;;;;;28.78;26.77;99110.75;5092167;28;20028;-52
2022/04/16 07:15:33;;;;;;;12.68;4.90;;;;;;;29.30;26.31;99109.34;5092068;28;20048;-51
2022/04/16 07:17:59;;;;;;;7.82;4.07;;;;;;;29.57;25.80;99103.69;5091767;28;20027;-51
2022/04/16 07:20:25;;;;;;;7.47;4.00;;;;;;;29.81;25.54;99097.06;5092039;28;20024;-51
2022/04/16 07:22:50;;;;;;;9.88;4.93;;;;;;;29.80;25.71;99093.56;5091902;28;20081;-51
2022/04/16 07:25:16;;;;;;;11.40;9.75;;;;;;;30.00;25.24;99085.91;5091930;28;20020;-52
2022/04/16 07:27:43;;;;;;;8.18;4.40;;;;;;;30.21;24.99;99088.75;5091939;28;20484;-51
2022/04/16 07:30:10;;;;;;;7.55;3.67;;;;;;;30.46;24.36;99093.38;5090543;28;20028;-51
2022/04/16 07:32:36;;;;;;;15.25;4.18;;;;;;;30.79;24.21;99097.41;5091817;28;20024;-51
2022/04/16 07:35:02;;;;;;;6.47;3.78;;;;;;;31.09;23.84;99094.72;5091569;28;20574;-50
2022/04/16 07:37:28;;;;;;;8.40;3.97;;;;;;;31.23;23.26;99098.81;5091849;28;20490;-52
2022/04/16 07:39:53;;;;;;;5.35;3.97;;;;;;;31.40;23.28;99091.69;5091787;28;20099;-52
2022/04/16 07:42:19;;;;;;;9.95;4.00;;;;;;;31.75;22.76;99091.47;5091772;28;20028;-51
2022/04/16 07:44:45;;;;;;;4.50;3.40;;;;;;;32.12;22.50;99092.47;5091688;28;20058;-51
2022/04/16 07:47:11;;;;;;;8.70;4.20;;;;;;;32.48;21.76;99098.31;5091691;28;20043;-51
2022/04/16 07:49:36;;;;;;;5.30;3.70;;;;;;;32.59;21.82;99103.00;5091687;28;20035;-51
2022/04/16 07:52:02;;;;;;;6.30;3.55;;;;;;;32.68;21.73;99100.22;5091674;28;20406;-51
2022/04/16 07:54:28;;;;;;;10.75;4.18;;;;;;;32.69;21.48;99087.41;5090334;28;20092;-52
2022/04/16 07:56:54;;;;;;;6.05;4.13;;;;;;;32.83;21.42;99087.88;5091621;28;20016;-52
2022/04/16 07:59:19;;;;;;;6.53;3.35;;;;;;;33.04;21.34;99079.59;5091595;28;20024;-51
2022/04/16 08:01:45;;;;;;;5.47;3.30;;;;;;;33.17;20.75;99081.22;5090242;28;20025;-52
2022/04/16 08:04:11;;;;;;;4.57;3.75;;;;;;;33.43;21.23;99085.50;5090204;28;20027;-51
2022/04/16 08:06:36;;;;;;;10.15;3.35;;;;;;;33.42;21.24;99081.16;5091463;28;20409;-50
2022/04/16 08:09:03;;;;;;;6.35;3.42;;;;;;;33.36;21.03;99085.25;5091466;28;20028;-51
2022/04/16 08:11:33;;;;;;;7.70;3.75;;;;;;;33.42;21.26;99092.06;5091533;28;20401;-52
2022/04/16 08:13:59;;;;;;;6.72;3.88;;;;;;;33.77;20.56;99083.38;5090210;28;20559;-51
2022/04/16 08:16:25;;;;;;;9.43;3.78;;;;;;;34.17;19.98;99082.56;5091403;28;20055;-51
2022/04/16 08:18:51;;;;;;;8.27;4.38;;;;;;;34.33;20.30;99071.66;5090076;28;20051;-52
2022/04/16 08:21:17;;;;;;;4.78;4.35;;;;;;;34.28;20.32;99083.63;5091399;28;20070;-50
2022/04/16 08:23:55;;;;;;;6.57;4.20;;;;;;;34.35;19.99;99080.28;5089976;28;20028;-51
2022/04/16 08:26:23;;;;;;;7.90;4.72;;;;;;;34.56;20.01;99083.56;5091337;28;20021;-50
2022/04/16 08:28:49;;;;;;;7.38;5.00;;;;;;;34.65;19.64;99088.88;5091025;28;20058;-52
2022/04/16 08:31:15;;;;;;;10.75;5.63;;;;;;;34.64;19.97;99081.81;5095042;28;20024;-52
2022/04/16 08:33:40;;;;;;;18.83;16.73;;;;;;;34.11;19.97;99092.91;5093688;28;20024;-51
2022/04/16 08:36:06;;;;;;;5.75;5.10;;;;;;;33.69;20.19;99089.78;5094689;28;20124;-52
2022/04/16 08:38:32;;;;;;;7.93;5.05;;;;;;;33.77;20.73;99088.84;5094870;28;20020;-51
2022/04/16 08:41:00;;;;;;;4.78;3.97;;;;;;;34.06;20.38;99084.97;5093547;28;20089;-52
2022/04/16 08:43:26;;;;;;;7.25;4.85;;;;;;;33.89;20.14;99075.16;5094759;28;20413;-51
2022/04/16 08:45:55;;;;;;;6.65;4.15;;;;;;;33.81;20.88;99078.84;5093440;28;20020;-52
2022/04/16 08:48:21;;;;;;;9.13;4.68;;;;;;;33.62;20.72;99082.97;5094755;28;20111;-51
2022/04/16 08:50:48;;;;;;;8.15;4.00;;;;;;;33.44;21.20;99076.16;5094668;28;20099;-51
2022/04/16 08:53:15;;;;;;;9.30;8.32;;;;;;;33.53;20.71;99068.69;5094668;28;20035;-52
2022/04/16 08:55:41;;;;;;;7.68;5.10;;;;;;;33.75;20.75;99069.34;5094579;28;20497;-52
2022/04/16 08:58:06;;;;;;;6.43;4.50;;;;;;;33.43;20.79;99069.16;5094590;28;20031;-51
2022/04/16 09:00:32;;;;;;;10.25;5.18;;;;;;;33.58;21.00;99062.19;5093227;28;20023;-52
2022/04/16 09:03:03;;;;;;;4.57;4.10;;;;;;;33.87;20.21;99055.66;5076253;28;20032;-51
2022/04/16 09:05:29;;;;;;;8.50;4.00;;;;;;;34.26;20.09;99055.94;5094387;28;20055;-52
2022/04/16 09:07:57;;;;;;;7.22;3.05;;;;;;;34.65;19.33;99049.88;5076267;28;20027;-51
2022/04/16 09:10:31;;;;;;;7.10;3.97;;;;;;;34.87;19.20;99049.28;5094217;28;20020;-51
2022/04/16 09:13:02;;;;;;;5.32;3.50;;;;;;;35.30;18.84;99046.75;5094290;28;20393;-52
2022/04/16 09:15:29;;;;;;;5.88;2.95;;;;;;;35.51;18.62;99052.66;5094277;28;20103;-52
2022/04/16 09:18:00;;;;;;;6.30;3.15;;;;;;;36.04;18.25;99041.25;5092880;28;20059;-52
2022/04/16 09:20:34;;;;;;;7.20;3.67;;;;;;;36.03;18.35;99047.06;5094109;28;20020;-52
2022/04/16 09:23:01;;;;;;;9.55;4.40;;;;;;;35.87;18.12;99047.16;5093998;28;20413;-52
2022/04/16 09:25:31;;;;;;;8.80;3.58;;;;;;;35.97;18.27;99044.59;5092721;28;20392;-51
2022/04/16 09:27:58;;;;;;;5.13;3.17;;;;;;;35.83;18.44;99043.56;5093977;28;20401;-51
2022/04/16 09:30:30;;;;;;;7.72;3.47;;;;;;;35.86;18.56;99040.91;5093921;28;20047;-51
2022/04/16 09:32:57;;;;;;;6.18;2.65;;;;;;;35.91;18.50;99043.31;5093891;28;20031;-52
2022/04/16 09:35:32;;;;;;;3.88;2.67;;;;;;;36.11;18.27;99046.81;5092311;28;20071;-52
2022/04/16 09:37:59;;;;;;;6.82;3.38;;;;;;;35.78;18.34;99052.84;5092457;28;20042;-51
2022/04/16 09:40:32;;;;;;;4.78;3.10;;;;;;;35.93;17.89;99030.09;5093568;28;20020;-51
2022/04/16 09:43:03;;;;;;;7.20;2.90;;;;;;;36.05;18.02;99039.28;5093942;28;20027;-52
2022/04/16 09:45:30;;;;;;;4.43;2.53;;;;;;;36.06;17.79;99029.94;5093665;28;20513;-52
2022/04/16 09:47:56;;;;;;;5.97;2.78;;;;;;;35.88;18.24;99030.41;5093624;28;20055;-52
2022/04/16 09:50:25;;;;;;;6.38;3.17;;;;;;;35.74;18.53;99028.19;5093469;28;20030;-51
2022/04/16 09:52:53;;;;;;;9.75;2.88;;;;;;;35.71;18.20;99034.34;5092169;28;20024;-52
2022/04/16 09:55:21;;;;;;;6.30;2.75;;;;;;;35.56;18.29;99024.28;5093358;28;20020;-52
2022/04/16 09:57:52;;;;;;;6.75;2.60;;;;;;;35.75;18.39;99032.50;5092099;28;20028;-51
2022/04/16 10:00:18;;;;;;;6.43;2.78;;;;;;;35.78;18.41;99031.00;5093386;28;20545;-52
2022/04/16 10:02:45;;;;;;;4.55;2.83;;;;;;;35.50;18.71;99029.25;5093253;28;20052;-52
2022/04/16 10:05:10;;;;;;;5.68;3.88;;;;;;;35.67;18.15;99027.25;5091933;28;20024;-52
2022/04/16 10:07:37;;;;;;;4.60;2.63;;;;;;;35.73;18.23;99025.81;5093170;28;20034;-51
2022/04/16 10:10:17;;;;;;;5.57;2.97;;;;;;;35.44;18.48;99025.22;5093157;28;20031;-52
2022/04/16 10:13:07;;;;;;;6.78;2.58;;;;;;;34.99;18.82;99026.56;5093180;28;20497;-52
2022/04/16 10:15:52;;;;;;;13.07;3.90;;;;;;;34.90;19.07;99021.31;5093099;28;20103;-52
2022/04/16 10:18:17;;;;;;;8.05;2.35;;;;;;;35.14;18.89;99020.28;5093057;28;20024;-51
2022/04/16 10:20:57;;;;;;;8.65;3.85;;;;;;;35.43;18.84;99014.66;5091599;28;20367;-52
2022/04/16 10:23:40;;;;;;;6.85;4.47;;;;;;;36.02;18.48;99013.50;5091459;28;20039;-50
2022/04/16 10:26:09;;;;;;;7.03;3.78;;;;;;;36.01;18.28;99003.69;5091802;28;20032;-50
2022/04/16 10:28:54;;;;;;;5.88;2.65;;;;;;;36.19;18.17;99004.81;5091527;28;20397;-51
2022/04/16 10:31:25;;;;;;;6.55;2.60;;;;;;;36.30;17.87;99007.75;5092681;28;20498;-52
2022/04/16 10:33:58;;;;;;;4.93;2.85;;;;;;;36.08;18.12;99012.03;5091669;28;20405;-53
2022/04/16 10:36:36;;;;;;;6.47;5.78;;;;;;;35.93;18.26;99005.50;5091338;28;20119;-52
2022/04/16 10:39:29;;;;;;;3.72;2.30;;;;;;;36.27;18.09;99011.22;5092699;28;20058;-51
2022/04/16 10:42:00;;;;;;;3.47;2.33;;;;;;;36.41;17.76;99009.88;5092601;28;20035;-51
2022/04/16 10:44:27;;;;;;;7.25;3.47;;;;;;;36.34;17.78;99010.53;5092393;28;20023;-51
2022/04/16 10:46:54;;;;;;;4.57;3.58;;;;;;;36.15;18.06;99014.13;5092480;28;20446;-52
2022/04/16 10:49:25;;;;;;;4.50;2.80;;;;;;;36.21;17.95;99012.66;5092441;28;20013;-52
2022/04/16 10:51:52;;;;;;;11.20;4.45;;;;;;;36.36;17.95;99005.47;5091896;28;20486;-51
2022/04/16 10:54:34;;;;;;;7.78;3.60;;;;;;;36.57;17.86;98994.13;5092398;28;20020;-50
2022/04/16 10:57:01;;;;;;;8.35;5.10;;;;;;;36.06;18.21;98997.94;5092350;28;20060;-51
2022/04/16 10:59:43;;;;;;;5.50;2.90;;;;;;;35.76;18.20;98989.59;5092294;28;20036;-51
2022/04/16 11:02:38;;;;;;;6.22;3.45;;;;;;;35.47;18.76;98990.94;5092247;28;20078;-52
2022/04/16 11:05:05;;;;;;;4.95;2.25;;;;;;;35.63;18.83;98985.41;5079173;28;20044;-52
2022/04/16 11:07:35;;;;;;;7.03;2.50;;;;;;;35.82;18.28;98992.81;5092161;28;20579;-52
2022/04/16 11:10:06;;;;;;;3.45;2.20;;;;;;;35.83;18.32;98981.53;5092148;28;20558;-52
2022/04/16 11:12:32;;;;;;;5.82;2.20;;;;;;;36.04;18.34;98974.84;5090855;28;20398;-51
2022/04/16 11:14:59;;;;;;;2.20;1.80;;;;;;;35.48;18.60;98978.91;5090789;28;20032;-50
2022/04/16 11:17:25;;;;;;;4.47;2.38;;;;;;;34.97;18.81;98979.75;5092020;28;20440;-52
2022/04/16 11:20:02;;;;;;;3.45;2.38;;;;;;;34.80;19.08;98968.09;5092046;28;20032;-51
2022/04/16 11:22:29;;;;;;;4.07;2.22;;;;;;;34.56;19.45;98973.75;5090739;28;20134;-51
2022/04/16 11:24:55;;;;;;;6.57;2.53;;;;;;;34.18;19.91;98965.06;5090558;28;20031;-50
2022/04/16 11:36:02;;;;;;;8.55;4.93;;;;;;;33.21;20.51;98946.09;5091676;28;20067;-50
2022/04/16 11:38:33;;;;;;;4.95;2.88;;;;;;;32.72;21.77;98956.25;5091814;28;20359;-51
2022/04/16 11:41:01;;;;;;;21.42;4.50;;;;;;;32.42;21.83;98957.28;5090419;28;20089;-51
2022/04/16 11:43:30;;;;;;;14.02;12.80;;;;;;;32.38;21.81;98939.28;5091712;28;20149;-51
2022/04/16 11:45:56;;;;;;;10.90;3.90;;;;;;;32.37;22.13;98934.97;5090413;28;20025;-52
2022/04/16 11:48:22;;;;;;;10.23;6.18;;;;;;;32.10;22.07;98950.00;5091741;28;20042;-49
2022/04/16 11:50:48;;;;;;;16.35;10.05;;;;;;;32.15;22.17;98942.41;5091771;28;20099;-50